Time;durP1;ratioP1;P1;durP2;ratioP2;P2;SDS_P1;SDS_P2;PMS_P1;PMS_P2;Temp;Humidity;BMP_temperature;BMP_pressure;BME280_temperature;BME280_humidity;BME280_pressure;Samples;Min_cycle;Max_cycle;Signal;HPM_P1;HPM_P2
2021/09/01 00:02:05;;;;;;;0.93;0.63;;;25.20;70.40;;;;;;5062856;28;20045;-37
2021/09/01 00:04:31;;;;;;;0.57;0.50;;;25.20;70.40;;;;;;5063204;28;20025;-36
2021/09/01 00:06:58;;;;;;;0.90;0.50;;;25.20;70.50;;;;;;5063461;28;20028;-37
2021/09/01 00:09:24;;;;;;;0.97;0.50;;;25.20;70.50;;;;;;5063287;28;20401;-37
2021/09/01 00:11:51;;;;;;;1.52;0.60;;;25.20;70.50;;;;;;5062921;28;20033;-37
2021/09/01 00:14:18;;;;;;;0.80;0.50;;;25.20;70.60;;;;;;5029259;28;20049;-37
2021/09/01 00:16:44;;;;;;;0.82;0.43;;;25.20;70.60;;;;;;5041804;28;20158;-37
2021/09/01 00:19:10;;;;;;;0.60;0.50;;;25.20;70.60;;;;;;5062084;28;20032;-37
2021/09/01 00:21:37;;;;;;;0.50;0.50;;;25.20;70.60;;;;;;5062670;28;20037;-37
2021/09/01 00:24:03;;;;;;;0.65;0.50;;;25.20;70.70;;;;;;5062987;28;20040;-37
2021/09/01 00:26:30;;;;;;;0.90;0.68;;;25.20;70.70;;;;;;5062005;28;20036;-37
2021/09/01 00:28:56;;;;;;;1.47;0.50;;;25.20;70.70;;;;;;5062722;28;20060;-36
2021/09/01 00:31:23;;;;;;;1.88;0.60;;;25.20;70.80;;;;;;5054015;28;20041;-37
2021/09/01 00:33:49;;;;;;;0.90;0.67;;;25.20;70.80;;;;;;5042669;28;20037;-37
2021/09/01 00:36:15;;;;;;;0.70;0.57;;;25.20;70.80;;;;;;5042445;28;20036;-36
2021/09/01 00:38:41;;;;;;;1.50;0.53;;;25.20;70.80;;;;;;5042755;28;20029;-36
2021/09/01 00:41:08;;;;;;;1.15;0.70;;;25.20;70.80;;;;;;5042702;28;20383;-36
2021/09/01 00:43:34;;;;;;;0.65;0.40;;;25.20;70.80;;;;;;5042646;28;20037;-37
2021/09/01 00:46:00;;;;;;;2.42;0.77;;;25.20;70.80;;;;;;5042488;28;20029;-36
2021/09/01 00:48:26;;;;;;;1.90;0.60;;;25.20;70.80;;;;;;5042608;28;20080;-37
2021/09/01 00:50:56;;;;;;;0.60;0.60;;;25.20;70.90;;;;;;5042505;28;20030;-36
2021/09/01 00:53:26;;;;;;;1.67;0.60;;;25.20;70.90;;;;;;5042496;28;20028;-37
2021/09/01 00:55:53;;;;;;;1.02;0.50;;;25.20;70.80;;;;;;5042017;28;20049;-36
2021/09/01 00:58:19;;;;;;;2.17;0.57;;;25.20;70.80;;;;;;5042468;28;20788;-36
2021/09/01 01:03:30;;;;;;;1.15;0.60;;;25.20;70.70;;;;;;5062371;28;20036;-36
2021/09/01 01:05:57;;;;;;;0.52;0.50;;;25.20;70.70;;;;;;5044312;28;20025;-37
2021/09/01 01:08:27;;;;;;;0.60;0.60;;;25.20;70.70;;;;;;5062258;28;20032;-36
2021/09/01 01:10:53;;;;;;;0.70;0.65;;;25.20;70.70;;;;;;5044400;28;20523;-36
2021/09/01 01:13:20;;;;;;;0.82;0.60;;;25.20;70.70;;;;;;5062291;28;20039;-37
2021/09/01 01:15:46;;;;;;;0.68;0.52;;;25.20;71.50;;;;;;5062181;28;20033;-36
2021/09/01 01:18:12;;;;;;;0.93;0.50;;;25.20;70.80;;;;;;5062267;28;20021;-36
2021/09/01 01:20:39;;;;;;;1.98;0.50;;;25.20;70.80;;;;;;5047552;28;20037;-36
2021/09/01 01:23:09;;;;;;;0.75;0.50;;;25.20;70.80;;;;;;5042100;28;20033;-36
2021/09/01 01:25:38;;;;;;;0.80;0.60;;;25.20;70.90;;;;;;5042300;28;20025;-37
2021/09/01 01:28:05;;;;;;;2.05;0.65;;;25.20;70.90;;;;;;5049223;28;20040;-37
2021/09/01 01:30:31;;;;;;;1.88;0.60;;;25.30;71.00;;;;;;5063473;28;20048;-36
2021/09/01 01:32:57;;;;;;;0.47;0.43;;;25.20;70.90;;;;;;5045989;28;20029;-36
2021/09/01 01:35:24;;;;;;;0.77;0.60;;;25.20;70.90;;;;;;5046265;28;20028;-36
2021/09/01 01:37:50;;;;;;;1.10;0.67;;;25.20;71.00;;;;;;5045731;28;20663;-36
2021/09/01 01:40:16;;;;;;;1.00;0.70;;;25.20;70.90;;;;;;5046072;28;20029;-36
2021/09/01 01:42:42;;;;;;;1.00;0.60;;;25.20;70.80;;;;;;5045978;28;20101;-40
2021/09/01 01:45:09;;;;;;;1.38;0.50;;;25.20;71.00;;;;;;5045892;28;20096;-36
2021/09/01 01:47:35;;;;;;;2.45;0.60;;;25.20;71.00;;;;;;5045761;28;20632;-36
2021/09/01 01:50:01;;;;;;;0.50;0.50;;;25.20;71.00;;;;;;5037467;28;20033;-36
2021/09/01 01:52:27;;;;;;;0.45;0.40;;;25.20;71.10;;;;;;5065963;28;20110;-37
2021/09/01 01:54:53;;;;;;;0.60;0.50;;;25.20;71.10;;;;;;5065645;28;20113;-36
2021/09/01 01:57:20;;;;;;;0.60;0.52;;;25.20;71.20;;;;;;5065519;28;20035;-36
2021/09/01 01:59:46;;;;;;;1.23;0.60;;;25.20;71.20;;;;;;5085791;28;20032;-36
2021/09/01 02:02:12;;;;;;;1.17;0.40;;;25.20;71.20;;;;;;5070464;28;20116;-37
2021/09/01 02:04:38;;;;;;;1.23;0.70;;;25.20;71.40;;;;;;5065665;28;20024;-37
2021/09/01 02:07:04;;;;;;;0.73;0.40;;;25.20;71.30;;;;;;5065076;28;20055;-36
2021/09/01 02:09:30;;;;;;;0.43;0.40;;;25.20;71.20;;;;;;5065307;28;20203;-37
2021/09/01 02:11:57;;;;;;;0.85;0.60;;;25.20;71.20;;;;;;5047618;28;20055;-36
2021/09/01 02:14:23;;;;;;;0.50;0.50;;;25.20;71.10;;;;;;5065462;28;20025;-36
2021/09/01 02:16:49;;;;;;;0.95;0.60;;;25.20;71.20;;;;;;5065065;28;20028;-37
2021/09/01 02:19:15;;;;;;;1.30;0.55;;;25.20;71.20;;;;;;5065294;28;20052;-36
2021/09/01 02:21:41;;;;;;;0.82;0.60;;;25.20;71.10;;;;;;5065342;28;20045;-36
2021/09/01 02:24:07;;;;;;;1.45;0.30;;;25.20;71.10;;;;;;5064286;28;20108;-36
2021/09/01 02:26:34;;;;;;;0.67;0.40;;;25.20;71.20;;;;;;5062817;28;20085;-36
2021/09/01 02:29:00;;;;;;;0.40;0.40;;;25.20;71.20;;;;;;5064684;28;20025;-37
2021/09/01 02:31:26;;;;;;;0.55;0.50;;;25.20;71.30;;;;;;5047253;28;20809;-36
2021/09/01 02:33:52;;;;;;;0.98;0.63;;;25.20;71.40;;;;;;5065160;28;20036;-36
2021/09/01 02:36:19;;;;;;;0.57;0.57;;;25.20;71.50;;;;;;5064962;28;20565;-36
2021/09/01 02:38:45;;;;;;;0.80;0.37;;;25.20;71.50;;;;;;5064779;28;20044;-36
2021/09/01 02:41:12;;;;;;;1.05;0.40;;;25.20;71.50;;;;;;5063872;28;20557;-36
2021/09/01 02:43:38;;;;;;;;;;;25.20;71.50;;;;;;5065402;28;20508;-36
2021/09/01 02:46:04;;;;;;;0.40;0.40;;;25.20;71.50;;;;;;5064896;28;19984;-36
2021/09/01 02:48:30;;;;;;;0.43;0.40;;;25.20;71.30;;;;;;5064528;28;20021;-36
2021/09/01 02:50:57;;;;;;;0.57;0.50;;;25.20;71.30;;;;;;5064895;28;20029;-36
2021/09/01 02:53:23;;;;;;;0.40;0.40;;;25.20;71.30;;;;;;5064853;28;20702;-36
2021/09/01 02:55:49;;;;;;;0.50;0.50;;;25.20;71.20;;;;;;5064622;28;20049;-36
2021/09/01 02:58:16;;;;;;;0.33;0.33;;;25.20;71.10;;;;;;5064390;28;20389;-36
2021/09/01 03:00:42;;;;;;;0.73;0.43;;;25.20;71.20;;;;;;5046657;28;20313;-36
2021/09/01 03:03:08;;;;;;;0.47;0.40;;;25.20;71.30;;;;;;5064534;28;20041;-36
2021/09/01 03:05:34;;;;;;;0.45;0.30;;;25.20;71.30;;;;;;5064473;28;20021;-36
2021/09/01 03:08:01;;;;;;;0.30;0.30;;;25.20;71.40;;;;;;5064214;28;20031;-36
2021/09/01 03:10:27;;;;;;;0.50;0.50;;;25.20;71.40;;;;;;5064469;28;20029;-36
2021/09/01 03:12:53;;;;;;;0.30;0.30;;;25.20;71.40;;;;;;5064400;28;20079;-36
2021/09/01 03:15:19;;;;;;;0.73;0.50;;;25.20;71.50;;;;;;5064348;28;20057;-36
2021/09/01 03:17:45;;;;;;;0.50;0.50;;;25.20;71.40;;;;;;5055327;28;20043;-36
2021/09/01 03:20:12;;;;;;;0.88;0.50;;;25.20;71.50;;;;;;5064401;28;20107;-36
2021/09/01 03:22:38;;;;;;;1.25;0.50;;;25.20;71.40;;;;;;5064016;28;20707;-37
2021/09/01 03:25:04;;;;;;;0.45;0.40;;;25.20;71.40;;;;;;5063945;28;20039;-36
2021/09/01 03:27:31;;;;;;;0.93;0.43;;;25.20;71.40;;;;;;5063616;28;20021;-36
2021/09/01 03:29:57;;;;;;;0.90;0.50;;;25.20;71.30;;;;;;5064085;28;20055;-37
2021/09/01 03:32:23;;;;;;;0.80;0.47;;;25.20;71.30;;;;;;5063937;28;20029;-36
2021/09/01 03:34:49;;;;;;;1.02;0.60;;;25.10;71.20;;;;;;5063968;28;20401;-37
2021/09/01 03:37:15;;;;;;;0.82;0.40;;;25.20;71.30;;;;;;5063881;28;20025;-36
2021/09/01 03:39:41;;;;;;;0.50;0.43;;;25.20;71.30;;;;;;5063665;28;20055;-36
2021/09/01 03:42:07;;;;;;;0.38;0.38;;;25.20;71.30;;;;;;5063781;28;20064;-36
2021/09/01 03:44:34;;;;;;;1.48;0.40;;;25.10;71.30;;;;;;5063969;28;20031;-36
2021/09/01 03:47:00;;;;;;;1.50;0.55;;;25.20;71.40;;;;;;5063645;28;20408;-36
2021/09/01 03:49:26;;;;;;;0.60;0.40;;;25.10;71.30;;;;;;5058709;28;20056;-36
2021/09/01 03:51:52;;;;;;;0.45;0.40;;;25.10;71.40;;;;;;5043555;28;20083;-36
2021/09/01 03:54:18;;;;;;;0.40;0.30;;;25.10;71.40;;;;;;5052828;28;20052;-36
2021/09/01 03:56:44;;;;;;;0.75;0.45;;;25.10;71.40;;;;;;5063504;28;20033;-36
2021/09/01 03:59:11;;;;;;;0.55;0.50;;;25.10;71.40;;;;;;5063302;28;20059;-36
2021/09/01 04:01:37;;;;;;;1.10;0.40;;;25.10;71.40;;;;;;5063230;28;20033;-36
2021/09/01 04:04:06;;;;;;;0.90;0.40;;;25.10;71.30;;;;;;5063387;28;20037;-36
2021/09/01 04:06:33;;;;;;;0.32;0.30;;;25.10;71.40;;;;;;5063302;28;20029;-36
2021/09/01 04:08:59;;;;;;;1.20;0.43;;;25.10;71.20;;;;;;5063176;28;20802;-36
2021/09/01 04:11:25;;;;;;;1.83;0.50;;;25.10;71.30;;;;;;5063245;28;20071;-36
2021/09/01 04:13:51;;;;;;;0.50;0.32;;;25.10;71.20;;;;;;5063336;28;20036;-36
2021/09/01 04:16:17;;;;;;;1.42;0.45;;;25.10;71.30;;;;;;5062952;28;20059;-37
2021/09/01 04:18:43;;;;;;;0.73;0.30;;;25.10;71.20;;;;;;5062599;28;20036;-36
2021/09/01 04:21:10;;;;;;;1.15;0.40;;;25.10;71.20;;;;;;5063011;28;20036;-36
2021/09/01 04:23:36;;;;;;;0.38;0.30;;;25.10;71.30;;;;;;5063143;28;20029;-36
2021/09/01 04:26:02;;;;;;;1.73;0.50;;;25.10;72.10;;;;;;5062044;28;20084;-36
2021/09/01 04:28:29;;;;;;;1.00;0.50;;;25.10;71.40;;;;;;5062699;28;20100;-36
2021/09/01 04:30:55;;;;;;;0.35;0.35;;;25.10;71.40;;;;;;5062720;28;20029;-37
2021/09/01 04:33:22;;;;;;;1.07;0.63;;;25.10;71.40;;;;;;5062767;28;20035;-38
2021/09/01 04:35:48;;;;;;;0.90;0.40;;;25.10;71.40;;;;;;5063015;28;20068;-37
2021/09/01 04:38:14;;;;;;;0.30;0.30;;;25.10;71.40;;;;;;5062769;28;20102;-37
2021/09/01 04:40:40;;;;;;;1.38;0.40;;;25.10;71.50;;;;;;5062495;28;20059;-37
2021/09/01 04:43:07;;;;;;;1.08;0.50;;;25.10;71.50;;;;;;5044947;28;20029;-36
2021/09/01 04:45:33;;;;;;;1.70;0.43;;;25.10;71.30;;;;;;5062701;28;20088;-37
2021/09/01 04:47:59;;;;;;;1.98;0.40;;;25.10;71.40;;;;;;5062870;28;20084;-37
2021/09/01 04:50:25;;;;;;;0.52;0.45;;;25.10;71.30;;;;;;5049516;28;20036;-37
2021/09/01 04:52:51;;;;;;;0.85;0.50;;;25.10;71.20;;;;;;5042631;28;20029;-37
2021/09/01 04:55:18;;;;;;;0.83;0.50;;;25.00;71.30;;;;;;5042492;28;20057;-37
2021/09/01 04:57:44;;;;;;;1.45;0.43;;;25.00;71.20;;;;;;5042536;28;20026;-37
2021/09/01 05:00:13;;;;;;;0.73;0.30;;;25.10;71.40;;;;;;5042459;28;20030;-36
2021/09/01 05:02:39;;;;;;;0.65;0.40;;;25.00;71.40;;;;;;5061005;28;20041;-36
2021/09/01 05:05:07;;;;;;;0.40;0.40;;;25.00;71.40;;;;;;5061703;28;20021;-36
2021/09/01 05:07:33;;;;;;;;;;;25.00;71.50;;;;;;5062712;28;20041;-37
2021/09/01 05:09:59;;;;;;;0.60;0.38;;;25.00;71.40;;;;;;5062154;28;19915;-37
2021/09/01 05:12:27;;;;;;;1.23;0.40;;;25.00;71.40;;;;;;5062507;28;20029;-37
2021/09/01 05:14:56;;;;;;;0.90;0.40;;;25.00;71.40;;;;;;5062363;28;20103;-36
2021/09/01 05:17:22;;;;;;;1.95;0.50;;;25.00;71.50;;;;;;5062174;28;20686;-36
2021/09/01 05:19:49;;;;;;;0.38;0.38;;;25.00;71.30;;;;;;5062075;28;20040;-36
2021/09/01 05:22:19;;;;;;;0.43;0.43;;;25.00;71.40;;;;;;5061941;28;20041;-37
2021/09/01 05:25:05;;;;;;;0.77;0.43;;;25.00;71.20;;;;;;5062331;28;20025;-36
2021/09/01 05:27:32;;;;;;;0.63;0.43;;;25.00;71.30;;;;;;5062467;28;20037;-36
2021/09/01 05:29:59;;;;;;;0.63;0.40;;;25.00;71.30;;;;;;5061979;28;20060;-37
2021/09/01 05:32:27;;;;;;;1.63;0.68;;;25.00;71.30;;;;;;5045364;28;20072;-36
2021/09/01 05:34:54;;;;;;;1.35;0.60;;;25.00;71.30;;;;;;5041935;28;20061;-37
2021/09/01 05:37:21;;;;;;;0.40;0.30;;;25.00;71.30;;;;;;5042392;28;20029;-36
2021/09/01 05:39:48;;;;;;;0.47;0.40;;;25.00;71.40;;;;;;5042065;28;20030;-36
2021/09/01 05:42:17;;;;;;;1.50;0.43;;;25.00;71.40;;;;;;5024338;28;20294;-36
2021/09/01 05:44:43;;;;;;;1.20;0.52;;;25.00;71.50;;;;;;5054029;28;20029;-36
2021/09/01 05:47:10;;;;;;;1.57;0.50;;;25.00;71.50;;;;;;5061657;28;20025;-36
2021/09/01 05:49:36;;;;;;;0.40;0.40;;;25.00;71.50;;;;;;5061866;28;20033;-36
2021/09/01 05:52:03;;;;;;;0.38;0.32;;;25.00;71.50;;;;;;5061994;28;20029;-36
2021/09/01 05:54:30;;;;;;;0.55;0.40;;;25.00;71.50;;;;;;5061742;28;20044;-37
2021/09/01 05:57:00;;;;;;;0.80;0.40;;;25.00;71.50;;;;;;5062162;28;20124;-36
2021/09/01 05:59:26;;;;;;;0.30;0.30;;;25.00;71.50;;;;;;5028135;28;20028;-36
2021/09/01 06:02:02;;;;;;;1.30;0.40;;;25.00;71.50;;;;;;5013173;28;20037;-37
2021/09/01 06:04:28;;;;;;;0.35;0.30;;;25.00;71.50;;;;;;5024757;28;20021;-36
2021/09/01 06:06:54;;;;;;;0.40;0.30;;;25.00;71.50;;;;;;5024464;28;20044;-36
2021/09/01 06:09:21;;;;;;;0.30;0.30;;;25.00;71.40;;;;;;5024098;28;20029;-36
2021/09/01 06:11:47;;;;;;;1.23;0.40;;;25.00;71.40;;;;;;5042001;28;20033;-36
2021/09/01 06:14:13;;;;;;;0.93;0.40;;;25.00;71.50;;;;;;5024117;28;20029;-36
2021/09/01 06:16:39;;;;;;;2.00;0.30;;;25.00;71.50;;;;;;5044094;28;20052;-37
2021/09/01 06:19:05;;;;;;;0.60;0.30;;;25.00;71.50;;;;;;5047088;28;20021;-37
2021/09/01 06:21:33;;;;;;;1.00;0.38;;;25.00;71.50;;;;;;5064747;28;20131;-36
2021/09/01 06:24:00;;;;;;;0.95;0.40;;;25.00;71.50;;;;;;5063866;28;20055;-36
2021/09/01 06:26:26;;;;;;;0.90;0.30;;;24.90;71.50;;;;;;5065501;28;20025;-37
2021/09/01 06:28:52;;;;;;;0.55;0.30;;;25.00;71.60;;;;;;5065287;28;20025;-36
2021/09/01 06:31:18;;;;;;;0.35;0.20;;;25.00;71.60;;;;;;5065060;28;20108;-36
2021/09/01 06:33:44;;;;;;;0.45;0.40;;;25.00;71.80;;;;;;5065125;28;20093;-36
2021/09/01 06:36:10;;;;;;;1.97;0.30;;;25.00;71.50;;;;;;5064820;28;20112;-36
2021/09/01 06:38:37;;;;;;;0.30;0.30;;;25.00;71.70;;;;;;5065232;28;20541;-36
2021/09/01 06:41:03;;;;;;;0.77;0.30;;;25.00;71.60;;;;;;5064916;28;20040;-37
2021/09/01 06:43:29;;;;;;;0.30;0.30;;;25.00;71.60;;;;;;5065172;28;20055;-37
2021/09/01 06:45:56;;;;;;;0.38;0.20;;;25.00;71.60;;;;;;5064958;28;20025;-36
2021/09/01 06:48:22;;;;;;;0.30;0.30;;;25.00;71.60;;;;;;5064684;28;20032;-36
2021/09/01 06:50:48;;;;;;;0.45;0.32;;;25.00;71.50;;;;;;5048431;28;20037;-36
2021/09/01 06:53:14;;;;;;;0.32;0.30;;;24.90;71.60;;;;;;5044976;28;20065;-37
2021/09/01 06:55:41;;;;;;;0.47;0.30;;;24.90;71.60;;;;;;5043708;28;20048;-36
2021/09/01 06:58:14;;;;;;;0.73;0.47;;;24.90;71.50;;;;;;5044784;28;20486;-37
2021/09/01 07:00:40;;;;;;;0.68;0.20;;;24.90;71.70;;;;;;5044438;28;20029;-36
2021/09/01 07:03:06;;;;;;;0.47;0.30;;;24.90;71.80;;;;;;5044602;28;20037;-36
2021/09/01 07:05:33;;;;;;;0.77;0.32;;;24.90;71.80;;;;;;5044656;28;20029;-37
2021/09/01 07:07:59;;;;;;;1.45;0.20;;;24.90;71.80;;;;;;5044578;28;20094;-36
2021/09/01 07:10:25;;;;;;;0.30;0.30;;;24.90;71.90;;;;;;5044543;28;20552;-37
2021/09/01 07:12:51;;;;;;;0.47;0.28;;;24.90;71.80;;;;;;5044683;28;20037;-36
2021/09/01 07:15:17;;;;;;;0.35;0.30;;;24.90;71.80;;;;;;5061440;28;20106;-36
2021/09/01 07:17:44;;;;;;;0.53;0.40;;;24.90;71.80;;;;;;5064204;28;20029;-36
2021/09/01 07:20:10;;;;;;;0.50;0.35;;;24.90;71.90;;;;;;5064457;28;20655;-37
2021/09/01 07:22:36;;;;;;;1.90;0.30;;;24.90;71.80;;;;;;5064089;28;20060;-36
2021/09/01 07:25:04;;;;;;;1.58;0.22;;;24.90;71.80;;;;;;5064083;28;20029;-36
2021/09/01 07:27:29;;;;;;;;;;;24.90;71.80;;;;;;5064278;28;20037;-36
2021/09/01 07:29:56;;;;;;;1.00;0.30;;;24.90;71.80;;;;;;5064115;28;19988;-36
2021/09/01 07:32:22;;;;;;;0.35;0.20;;;24.90;71.80;;;;;;5063939;28;20024;-36
2021/09/01 07:34:48;;;;;;;1.30;0.30;;;24.90;71.80;;;;;;5064136;28;20025;-36
2021/09/01 07:37:14;;;;;;;0.28;0.28;;;24.90;71.70;;;;;;5064120;28;20151;-36
2021/09/01 07:39:40;;;;;;;0.57;0.20;;;24.90;71.90;;;;;;5063923;28;20055;-36
2021/09/01 07:42:07;;;;;;;0.43;0.30;;;24.90;71.90;;;;;;5063463;28;20043;-37
2021/09/01 07:44:33;;;;;;;1.17;0.30;;;24.90;71.90;;;;;;5063780;28;20028;-37
2021/09/01 07:46:59;;;;;;;0.20;0.20;;;24.90;71.90;;;;;;5063739;28;20029;-36
2021/09/01 07:49:25;;;;;;;0.47;0.30;;;24.90;71.90;;;;;;5059041;28;20116;-36
2021/09/01 07:51:52;;;;;;;1.47;0.40;;;24.90;71.80;;;;;;5043800;28;20042;-36
2021/09/01 07:54:18;;;;;;;0.60;0.22;;;24.90;71.90;;;;;;5043527;28;20081;-36
2021/09/01 07:56:44;;;;;;;0.38;0.32;;;24.80;71.80;;;;;;5043805;28;20064;-36
2021/09/01 07:59:10;;;;;;;0.30;0.30;;;24.80;71.90;;;;;;5043733;28;20017;-36
2021/09/01 08:01:36;;;;;;;0.60;0.40;;;24.80;71.90;;;;;;5043384;28;20141;-36
2021/09/01 08:04:02;;;;;;;0.45;0.20;;;24.80;71.90;;;;;;5043443;28;20030;-36
2021/09/01 08:06:28;;;;;;;0.38;0.20;;;24.90;72.00;;;;;;5026044;28;20025;-37
2021/09/01 08:08:54;;;;;;;0.82;0.20;;;24.80;71.90;;;;;;5043492;28;20079;-36
2021/09/01 08:11:21;;;;;;;0.28;0.20;;;24.80;71.90;;;;;;5043301;28;20039;-36
2021/09/01 08:13:47;;;;;;;0.68;0.20;;;24.80;71.90;;;;;;5047852;28;20171;-37
2021/09/01 08:16:13;;;;;;;1.25;0.20;;;24.80;72.00;;;;;;5063333;28;20048;-36
2021/09/01 08:18:39;;;;;;;0.50;0.30;;;24.80;71.90;;;;;;5062649;28;20025;-36
2021/09/01 08:21:05;;;;;;;0.20;0.20;;;24.80;71.90;;;;;;5063218;28;20033;-37
2021/09/01 08:23:31;;;;;;;0.35;0.30;;;24.80;71.90;;;;;;5062870;28;20043;-36
2021/09/01 08:25:57;;;;;;;0.20;0.20;;;24.80;72.00;;;;;;5063331;28;20081;-36
2021/09/01 08:28:23;;;;;;;0.22;0.20;;;24.80;72.00;;;;;;5063197;28;20110;-36
2021/09/01 08:30:50;;;;;;;0.40;0.30;;;24.80;72.00;;;;;;5063150;28;20033;-36
2021/09/01 08:33:16;;;;;;;0.38;0.30;;;24.80;71.90;;;;;;5062771;28;20025;-36
2021/09/01 08:35:42;;;;;;;0.40;0.25;;;24.80;72.00;;;;;;5063031;28;20036;-36
2021/09/01 08:38:09;;;;;;;0.50;0.30;;;24.80;72.10;;;;;;5063051;28;20059;-37
2021/09/01 08:40:35;;;;;;;0.20;0.20;;;24.80;72.00;;;;;;5062115;28;20036;-36
2021/09/01 08:43:01;;;;;;;0.20;0.20;;;24.80;72.00;;;;;;5062639;28;20032;-36
2021/09/01 08:45:27;;;;;;;0.63;0.30;;;24.80;72.10;;;;;;5063092;28;20040;-37
2021/09/01 08:47:55;;;;;;;0.35;0.35;;;24.80;72.00;;;;;;5062747;28;20561;-36
2021/09/01 08:50:21;;;;;;;0.50;0.30;;;24.80;72.10;;;;;;5053673;28;20033;-36
2021/09/01 08:52:47;;;;;;;0.20;0.20;;;24.80;72.00;;;;;;5062735;28;20100;-36
2021/09/01 08:55:14;;;;;;;3.55;0.30;;;24.80;72.00;;;;;;5062628;28;20072;-37
2021/09/01 08:57:41;;;;;;;0.40;0.20;;;24.80;72.10;;;;;;5062717;28;20104;-38
2021/09/01 09:00:08;;;;;;;0.28;0.28;;;24.80;72.00;;;;;;5063003;28;20071;-36
2021/09/01 09:02:34;;;;;;;1.75;0.30;;;24.80;72.10;;;;;;5062318;28;20072;-36
2021/09/01 09:05:06;;;;;;;1.20;0.20;;;24.80;72.10;;;;;;5066617;28;20053;-37
2021/09/01 09:07:43;;;;;;;0.20;0.20;;;24.80;72.20;;;;;;5081508;28;20119;-36
2021/09/01 09:10:30;;;;;;;0.30;0.30;;;24.80;72.00;;;;;;5045436;28;20021;-37
2021/09/01 09:13:07;;;;;;;0.67;0.30;;;24.80;72.10;;;;;;5062550;28;20131;-37
2021/09/01 09:15:34;;;;;;;0.30;0.20;;;24.80;72.10;;;;;;5062591;28;20032;-36
2021/09/01 09:18:01;;;;;;;0.63;0.30;;;24.80;72.10;;;;;;5062546;28;20270;-36
2021/09/01 09:20:28;;;;;;;;;;;24.80;72.20;;;;;;5063098;28;20016;-36
2021/09/01 09:22:54;;;;;;;0.20;0.20;;;24.80;72.20;;;;;;5062275;28;19928;-36
2021/09/01 09:25:25;;;;;;;0.73;0.43;;;24.80;72.20;;;;;;5044606;28;20763;-36
2021/09/01 09:27:52;;;;;;;1.42;0.30;;;24.80;72.30;;;;;;5062404;28;20036;-36
2021/09/01 09:30:24;;;;;;;0.85;0.75;;;24.80;72.10;;;;;;5062511;28;20490;-36
2021/09/01 09:33:02;;;;;;;0.57;0.30;;;24.80;72.20;;;;;;5062258;28;20512;-36
2021/09/01 09:35:56;;;;;;;0.20;0.20;;;24.70;72.20;;;;;;5062499;28;20029;-36
2021/09/01 09:38:30;;;;;;;1.13;0.30;;;24.80;72.40;;;;;;5062627;28;20035;-36
2021/09/01 09:40:57;;;;;;;1.20;0.30;;;24.80;72.20;;;;;;5062387;28;20461;-36
2021/09/01 09:43:24;;;;;;;0.32;0.32;;;24.70;72.20;;;;;;5062367;28;20040;-36
2021/09/01 09:46:01;;;;;;;2.13;0.32;;;24.70;72.20;;;;;;5062065;28;20033;-36
2021/09/01 09:48:29;;;;;;;1.00;0.30;;;24.70;72.20;;;;;;5062367;28;20036;-36
2021/09/01 09:50:55;;;;;;;0.28;0.28;;;24.70;72.30;;;;;;5063393;28;20025;-36
2021/09/01 09:53:42;;;;;;;0.20;0.20;;;24.70;72.20;;;;;;5066013;28;20059;-36
2021/09/01 09:56:19;;;;;;;0.85;0.20;;;24.70;72.30;;;;;;5066055;28;20059;-37
2021/09/01 09:58:46;;;;;;;0.65;0.38;;;24.70;72.30;;;;;;5066243;28;20164;-36
2021/09/01 10:01:13;;;;;;;1.20;0.30;;;24.70;72.30;;;;;;5066191;28;20041;-36
2021/09/01 10:03:39;;;;;;;;;;;24.70;72.40;;;;;;5066217;28;20051;-36
2021/09/01 10:06:07;;;;;;;1.23;0.20;;;24.70;72.30;;;;;;5065831;28;19908;-36
2021/09/01 10:08:34;;;;;;;0.30;0.28;;;24.70;72.30;;;;;;5057925;28;20033;-36
2021/09/01 10:11:01;;;;;;;;;;;24.70;72.30;;;;;;5066177;28;20025;-37
2021/09/01 10:13:28;;;;;;;0.25;0.20;;;24.70;72.30;;;;;;5065385;28;19909;-36
2021/09/01 10:16:05;;;;;;;;;;;24.70;72.30;;;;;;5066272;28;20033;-36
2021/09/01 10:18:31;;;;;;;0.25;0.25;;;24.70;72.30;;;;;;5064399;28;19908;-36
2021/09/01 10:20:59;;;;;;;0.30;0.30;;;24.70;72.30;;;;;;5065670;28;20033;-36
2021/09/01 10:23:38;;;;;;;1.52;0.30;;;24.70;72.30;;;;;;5047565;28;20044;-36
2021/09/01 10:26:25;;;;;;;0.28;0.25;;;24.70;72.40;;;;;;5065521;28;20029;-37
2021/09/01 10:28:52;;;;;;;0.30;0.20;;;24.70;72.40;;;;;;5064958;28;20036;-37
2021/09/01 10:31:20;;;;;;;0.47;0.30;;;24.70;72.40;;;;;;5065663;28;20369;-36
2021/09/01 10:33:54;;;;;;;0.25;0.20;;;24.70;72.40;;;;;;5047710;28;20021;-37
2021/09/01 10:36:23;;;;;;;2.05;0.40;;;24.70;72.40;;;;;;5047612;28;20092;-36
2021/09/01 10:38:54;;;;;;;0.63;0.40;;;24.70;72.50;;;;;;5045393;28;20527;-36
2021/09/01 10:41:30;;;;;;;0.20;0.20;;;24.70;72.50;;;;;;5027851;28;20053;-37
2021/09/01 10:44:21;;;;;;;0.75;0.30;;;24.70;72.40;;;;;;5045173;28;20060;-37
2021/09/01 10:46:53;;;;;;;1.15;0.38;;;24.60;72.30;;;;;;5006997;28;20041;-36
2021/09/01 10:49:20;;;;;;;1.75;0.30;;;24.60;72.40;;;;;;5049139;28;20062;-36
2021/09/01 10:52:10;;;;;;;1.65;0.30;;;24.60;72.40;;;;;;5065057;28;20025;-36
2021/09/01 10:54:40;;;;;;;0.30;0.30;;;24.60;72.40;;;;;;5063830;28;20104;-36
2021/09/01 10:57:07;;;;;;;0.85;0.30;;;24.60;72.40;;;;;;5065142;28;20021;-36
2021/09/01 10:59:36;;;;;;;;;;;24.60;72.40;;;;;;5065134;28;20032;-37
2021/09/01 11:02:10;;;;;;;2.60;0.30;;;24.60;72.50;;;;;;5064248;28;20349;-36
2021/09/01 11:04:57;;;;;;;1.13;0.35;;;24.60;72.50;;;;;;5064572;28;20021;-36
2021/09/01 11:07:25;;;;;;;1.07;0.40;;;24.60;72.50;;;;;;5064289;28;20039;-36
2021/09/01 11:10:04;;;;;;;0.30;0.30;;;24.60;72.50;;;;;;5064603;28;20723;-36
2021/09/01 11:12:31;;;;;;;0.95;0.45;;;24.60;72.50;;;;;;5047400;28;20444;-37
2021/09/01 11:14:57;;;;;;;0.73;0.30;;;24.60;72.50;;;;;;5046497;28;20033;-37
2021/09/01 11:17:25;;;;;;;0.38;0.30;;;24.60;72.50;;;;;;5064602;28;20029;-36
2021/09/01 11:19:58;;;;;;;1.98;0.40;;;24.60;72.60;;;;;;5064612;28;20033;-36
2021/09/01 11:22:25;;;;;;;0.40;0.30;;;24.60;72.60;;;;;;5067317;28;20043;-36
2021/09/01 11:24:53;;;;;;;0.30;0.30;;;24.60;72.50;;;;;;5084268;28;20031;-36
2021/09/01 11:27:21;;;;;;;1.10;0.20;;;24.60;72.60;;;;;;5084484;28;20024;-36
2021/09/01 11:29:47;;;;;;;1.45;0.50;;;24.60;72.50;;;;;;5084438;28;20027;-37
2021/09/01 11:32:18;;;;;;;1.47;0.40;;;24.60;72.50;;;;;;5063217;28;20024;-36
2021/09/01 11:34:44;;;;;;;1.13;0.30;;;24.60;72.50;;;;;;5084228;28;20128;-36
2021/09/01 11:37:10;;;;;;;0.57;0.40;;;24.60;72.50;;;;;;5077378;28;20037;-36
2021/09/01 11:39:44;;;;;;;0.50;0.30;;;24.60;72.60;;;;;;5064170;28;20262;-36
2021/09/01 11:42:10;;;;;;;0.80;0.40;;;24.60;72.60;;;;;;5064208;28;20033;-37
2021/09/01 11:44:36;;;;;;;1.42;0.40;;;24.60;72.70;;;;;;5063841;28;20025;-36
2021/09/01 11:47:02;;;;;;;0.30;0.30;;;24.60;72.60;;;;;;5064065;28;20037;-36
2021/09/01 11:49:29;;;;;;;0.63;0.30;;;24.60;72.60;;;;;;5063940;28;20036;-36
2021/09/01 11:51:55;;;;;;;0.50;0.37;;;24.60;72.60;;;;;;5064027;28;20266;-36
2021/09/01 11:54:21;;;;;;;0.40;0.40;;;24.60;72.70;;;;;;5062945;28;20083;-36
2021/09/01 11:56:47;;;;;;;0.40;0.38;;;24.60;72.70;;;;;;5063854;28;20032;-37
2021/09/01 11:59:14;;;;;;;0.38;0.38;;;24.50;72.60;;;;;;5057154;28;20140;-36
2021/09/01 12:01:56;;;;;;;0.32;0.30;;;24.50;72.60;;;;;;5045643;28;20028;-36
2021/09/01 12:04:23;;;;;;;0.20;0.20;;;24.50;72.60;;;;;;5063560;28;20021;-36
2021/09/01 12:06:53;;;;;;;0.30;0.30;;;24.50;72.60;;;;;;5063309;28;20032;-36
2021/09/01 12:09:19;;;;;;;0.70;0.30;;;24.50;72.60;;;;;;5063163;28;20021;-37
2021/09/01 12:11:51;;;;;;;0.30;0.30;;;24.50;72.50;;;;;;5045672;28;20025;-36
2021/09/01 12:14:19;;;;;;;1.75;0.40;;;24.50;72.60;;;;;;5045673;28;20021;-36
2021/09/01 12:16:45;;;;;;;0.55;0.38;;;24.50;72.60;;;;;;5063221;28;20036;-36
2021/09/01 12:19:12;;;;;;;0.38;0.38;;;24.50;72.70;;;;;;5045531;28;20021;-36
2021/09/01 12:21:58;;;;;;;;;;;24.50;72.60;;;;;;5049377;28;20036;-36
2021/09/01 12:24:27;;;;;;;0.70;0.30;;;24.50;72.60;;;;;;5063732;28;19999;-36
2021/09/01 12:27:11;;;;;;;0.40;0.40;;;24.50;72.60;;;;;;5062833;28;20037;-36
2021/09/01 12:29:58;;;;;;;0.38;0.38;;;24.50;72.70;;;;;;5063027;28;20024;-36
2021/09/01 12:32:24;;;;;;;1.02;0.90;;;24.50;72.70;;;;;;5083187;28;20071;-36
2021/09/01 12:35:00;;;;;;;0.70;0.30;;;24.50;72.60;;;;;;5083043;28;20115;-36
2021/09/01 12:37:27;;;;;;;0.63;0.40;;;24.50;72.70;;;;;;5074258;28;20025;-37
2021/09/01 12:40:01;;;;;;;0.45;0.30;;;24.50;72.60;;;;;;5062985;28;20021;-37
2021/09/01 12:42:33;;;;;;;0.90;0.30;;;24.50;72.60;;;;;;5062870;28;20394;-37
2021/09/01 12:45:01;;;;;;;0.40;0.30;;;24.50;72.70;;;;;;5044998;28;20226;-36
2021/09/01 12:47:28;;;;;;;0.40;0.30;;;24.50;72.90;;;;;;5062584;28;20033;-36
2021/09/01 12:49:54;;;;;;;0.30;0.30;;;24.50;72.80;;;;;;5062959;28;20028;-36
2021/09/01 12:52:21;;;;;;;0.73;0.40;;;24.50;73.00;;;;;;5062629;28;20060;-36
2021/09/01 12:54:48;;;;;;;0.47;0.30;;;24.50;72.90;;;;;;5062444;28;20293;-37